sensor_id;sensor_type;location;lat;lon;timestamp;P1;durP1;ratioP1;P2;durP2;ratioP2
40046;SDS011;31510;48.122;11.576;2023-02-28T00:00:04;3.40;;;1.70;;
40046;SDS011;31510;48.122;11.576;2023-02-28T00:02:37;4.40;;;2.05;;
40046;SDS011;31510;48.122;11.576;2023-02-28T00:05:03;4.28;;;1.90;;
40046;SDS011;31510;48.122;11.576;2023-02-28T00:07:29;4.60;;;2.20;;
40046;SDS011;31510;48.122;11.576;2023-02-28T00:09:55;4.65;;;1.77;;
40046;SDS011;31510;48.122;11.576;2023-02-28T00:12:20;10.05;;;2.08;;
40046;SDS011;31510;48.122;11.576;2023-02-28T00:14:46;5.40;;;1.90;;
40046;SDS011;31510;48.122;11.576;2023-02-28T00:17:11;4.35;;;2.10;;
40046;SDS011;31510;48.122;11.576;2023-02-28T00:19:36;5.65;;;2.15;;
40046;SDS011;31510;48.122;11.576;2023-02-28T00:22:02;3.38;;;1.95;;
40046;SDS011;31510;48.122;11.576;2023-02-28T00:24:27;3.50;;;1.70;;
40046;SDS011;31510;48.122;11.576;2023-02-28T00:26:52;5.10;;;2.10;;
40046;SDS011;31510;48.122;11.576;2023-02-28T00:29:17;5.78;;;2.05;;
40046;SDS011;31510;48.122;11.576;2023-02-28T00:31:43;6.55;;;2.25;;
40046;SDS011;31510;48.122;11.576;2023-02-28T00:34:08;3.58;;;1.95;;
40046;SDS011;31510;48.122;11.576;2023-02-28T00:36:33;3.45;;;2.00;;
40046;SDS011;31510;48.122;11.576;2023-02-28T00:38:59;4.05;;;2.20;;
40046;SDS011;31510;48.122;11.576;2023-02-28T00:41:24;2.40;;;1.60;;
40046;SDS011;31510;48.122;11.576;2023-02-28T00:43:49;5.80;;;1.92;;
40046;SDS011;31510;48.122;11.576;2023-02-28T00:46:14;4.70;;;1.80;;
40046;SDS011;31510;48.122;11.576;2023-02-28T00:48:40;4.20;;;2.22;;
40046;SDS011;31510;48.122;11.576;2023-02-28T00:51:05;7.07;;;1.92;;
40046;SDS011;31510;48.122;11.576;2023-02-28T00:53:30;5.22;;;2.35;;
40046;SDS011;31510;48.122;11.576;2023-02-28T00:55:57;5.20;;;2.60;;
40046;SDS011;31510;48.122;11.576;2023-02-28T00:58:23;9.95;;;2.47;;
40046;SDS011;31510;48.122;11.576;2023-02-28T01:00:48;5.68;;;2.65;;
40046;SDS011;31510;48.122;11.576;2023-02-28T01:03:15;4.15;;;1.77;;
40046;SDS011;31510;48.122;11.576;2023-02-28T01:05:44;8.40;;;2.50;;
40046;SDS011;31510;48.122;11.576;2023-02-28T01:08:09;4.28;;;1.98;;
40046;SDS011;31510;48.122;11.576;2023-02-28T01:10:35;5.22;;;2.20;;
40046;SDS011;31510;48.122;11.576;2023-02-28T01:13:01;3.80;;;2.30;;
40046;SDS011;31510;48.122;11.576;2023-02-28T01:15:27;5.70;;;2.05;;
40046;SDS011;31510;48.122;11.576;2023-02-28T01:17:52;3.40;;;2.03;;
40046;SDS011;31510;48.122;11.576;2023-02-28T01:20:17;5.55;;;2.67;;
40046;SDS011;31510;48.122;11.576;2023-02-28T01:22:43;3.55;;;2.00;;
40046;SDS011;31510;48.122;11.576;2023-02-28T01:25:08;6.95;;;2.47;;
40046;SDS011;31510;48.122;11.576;2023-02-28T01:27:34;6.88;;;2.47;;
40046;SDS011;31510;48.122;11.576;2023-02-28T01:29:59;3.80;;;2.28;;
40046;SDS011;31510;48.122;11.576;2023-02-28T01:32:24;5.07;;;2.70;;
40046;SDS011;31510;48.122;11.576;2023-02-28T01:34:50;6.88;;;2.70;;
40046;SDS011;31510;48.122;11.576;2023-02-28T01:37:15;3.15;;;2.08;;
40046;SDS011;31510;48.122;11.576;2023-02-28T01:39:40;5.68;;;2.30;;
40046;SDS011;31510;48.122;11.576;2023-02-28T01:42:07;4.25;;;2.17;;
40046;SDS011;31510;48.122;11.576;2023-02-28T01:47:34;4.70;;;2.08;;
40046;SDS011;31510;48.122;11.576;2023-02-28T01:50:04;5.80;;;2.88;;
40046;SDS011;31510;48.122;11.576;2023-02-28T01:52:32;4.78;;;2.10;;
40046;SDS011;31510;48.122;11.576;2023-02-28T01:54:59;5.40;;;2.80;;
40046;SDS011;31510;48.122;11.576;2023-02-28T01:57:29;4.50;;;2.20;;
40046;SDS011;31510;48.122;11.576;2023-02-28T02:00:03;6.38;;;2.28;;
40046;SDS011;31510;48.122;11.576;2023-02-28T02:05:00;9.50;;;2.58;;
40046;SDS011;31510;48.122;11.576;2023-02-28T02:07:32;6.28;;;2.70;;
40046;SDS011;31510;48.122;11.576;2023-02-28T02:19:14;5.47;;;2.65;;
40046;SDS011;31510;48.122;11.576;2023-02-28T02:37:50;3.58;;;2.25;;
40046;SDS011;31510;48.122;11.576;2023-02-28T02:40:23;6.15;;;2.67;;
40046;SDS011;31510;48.122;11.576;2023-02-28T02:42:54;4.50;;;2.17;;
40046;SDS011;31510;48.122;11.576;2023-02-28T02:45:27;5.67;;;2.30;;
40046;SDS011;31510;48.122;11.576;2023-02-28T02:48:01;6.68;;;2.70;;
40046;SDS011;31510;48.122;11.576;2023-02-28T02:50:31;5.68;;;2.45;;
40046;SDS011;31510;48.122;11.576;2023-02-28T02:53:01;5.20;;;2.75;;
40046;SDS011;31510;48.122;11.576;2023-02-28T02:55:29;5.00;;;2.15;;
40046;SDS011;31510;48.122;11.576;2023-02-28T02:57:59;4.80;;;2.85;;
40046;SDS011;31510;48.122;11.576;2023-02-28T03:00:38;5.53;;;2.85;;
40046;SDS011;31510;48.122;11.576;2023-02-28T03:03:07;4.50;;;2.37;;
40046;SDS011;31510;48.122;11.576;2023-02-28T03:05:56;5.63;;;2.53;;
40046;SDS011;31510;48.122;11.576;2023-02-28T03:08:21;3.83;;;2.40;;
40046;SDS011;31510;48.122;11.576;2023-02-28T03:11:06;5.35;;;2.67;;
40046;SDS011;31510;48.122;11.576;2023-02-28T03:16:33;4.68;;;2.78;;
40046;SDS011;31510;48.122;11.576;2023-02-28T03:25:05;5.32;;;3.05;;
40046;SDS011;31510;48.122;11.576;2023-02-28T03:27:38;4.78;;;2.40;;
40046;SDS011;31510;48.122;11.576;2023-02-28T03:30:14;4.53;;;2.65;;
40046;SDS011;31510;48.122;11.576;2023-02-28T03:32:54;6.57;;;3.28;;
40046;SDS011;31510;48.122;11.576;2023-02-28T03:35:24;6.18;;;4.03;;
40046;SDS011;31510;48.122;11.576;2023-02-28T03:37:58;5.07;;;3.00;;
40046;SDS011;31510;48.122;11.576;2023-02-28T03:40:30;4.38;;;2.80;;
40046;SDS011;31510;48.122;11.576;2023-02-28T03:43:07;6.45;;;2.90;;
40046;SDS011;31510;48.122;11.576;2023-02-28T03:45:37;5.22;;;3.03;;
40046;SDS011;31510;48.122;11.576;2023-02-28T03:50:51;5.15;;;2.80;;
40046;SDS011;31510;48.122;11.576;2023-02-28T04:01:15;6.20;;;3.83;;
40046;SDS011;31510;48.122;11.576;2023-02-28T04:03:45;10.55;;;3.63;;
40046;SDS011;31510;48.122;11.576;2023-02-28T04:06:17;9.27;;;3.55;;
40046;SDS011;31510;48.122;11.576;2023-02-28T04:08:45;6.32;;;3.47;;
40046;SDS011;31510;48.122;11.576;2023-02-28T04:14:04;7.80;;;3.53;;
40046;SDS011;31510;48.122;11.576;2023-02-28T04:16:30;6.93;;;3.35;;
40046;SDS011;31510;48.122;11.576;2023-02-28T04:18:56;5.93;;;3.53;;
40046;SDS011;31510;48.122;11.576;2023-02-28T04:21:29;5.30;;;3.50;;
40046;SDS011;31510;48.122;11.576;2023-02-28T04:23:56;5.72;;;3.83;;
40046;SDS011;31510;48.122;11.576;2023-02-28T04:26:29;7.55;;;4.38;;
40046;SDS011;31510;48.122;11.576;2023-02-28T04:28:55;8.27;;;3.67;;
40046;SDS011;31510;48.122;11.576;2023-02-28T04:31:21;8.07;;;4.57;;
40046;SDS011;31510;48.122;11.576;2023-02-28T04:33:46;5.63;;;3.53;;
40046;SDS011;31510;48.122;11.576;2023-02-28T04:36:11;9.20;;;4.53;;
40046;SDS011;31510;48.122;11.576;2023-02-28T04:38:38;22.45;;;7.28;;
40046;SDS011;31510;48.122;11.576;2023-02-28T04:41:04;8.27;;;3.90;;
40046;SDS011;31510;48.122;11.576;2023-02-28T04:43:30;7.85;;;4.57;;
40046;SDS011;31510;48.122;11.576;2023-02-28T04:45:57;10.40;;;5.00;;
40046;SDS011;31510;48.122;11.576;2023-02-28T04:48:26;7.75;;;3.95;;
40046;SDS011;31510;48.122;11.576;2023-02-28T04:50:53;6.88;;;4.03;;
40046;SDS011;31510;48.122;11.576;2023-02-28T04:53:18;9.43;;;4.40;;
40046;SDS011;31510;48.122;11.576;2023-02-28T04:55:44;11.57;;;4.57;;
40046;SDS011;31510;48.122;11.576;2023-02-28T04:58:10;12.48;;;5.93;;
40046;SDS011;31510;48.122;11.576;2023-02-28T05:00:36;8.98;;;5.00;;
40046;SDS011;31510;48.122;11.576;2023-02-28T05:03:01;12.95;;;5.43;;
40046;SDS011;31510;48.122;11.576;2023-02-28T05:05:26;8.25;;;4.82;;
40046;SDS011;31510;48.122;11.576;2023-02-28T05:07:52;9.35;;;5.28;;
40046;SDS011;31510;48.122;11.576;2023-02-28T05:10:18;10.07;;;4.45;;
40046;SDS011;31510;48.122;11.576;2023-02-28T05:12:44;9.95;;;5.30;;
40046;SDS011;31510;48.122;11.576;2023-02-28T05:15:12;10.05;;;5.70;;
40046;SDS011;31510;48.122;11.576;2023-02-28T05:17:39;9.30;;;4.85;;
40046;SDS011;31510;48.122;11.576;2023-02-28T05:20:04;10.50;;;5.05;;
40046;SDS011;31510;48.122;11.576;2023-02-28T05:22:30;11.13;;;5.32;;
40046;SDS011;31510;48.122;11.576;2023-02-28T05:24:55;11.02;;;5.72;;
40046;SDS011;31510;48.122;11.576;2023-02-28T05:27:21;9.55;;;5.50;;
40046;SDS011;31510;48.122;11.576;2023-02-28T05:29:46;10.13;;;5.57;;
40046;SDS011;31510;48.122;11.576;2023-02-28T05:32:11;12.30;;;5.40;;
40046;SDS011;31510;48.122;11.576;2023-02-28T05:34:38;13.10;;;5.55;;
40046;SDS011;31510;48.122;11.576;2023-02-28T05:37:04;10.88;;;6.78;;
40046;SDS011;31510;48.122;11.576;2023-02-28T05:39:30;9.32;;;6.30;;
40046;SDS011;31510;48.122;11.576;2023-02-28T05:41:55;13.70;;;6.60;;
40046;SDS011;31510;48.122;11.576;2023-02-28T05:44:21;15.50;;;5.78;;
40046;SDS011;31510;48.122;11.576;2023-02-28T05:46:46;15.45;;;7.68;;
40046;SDS011;31510;48.122;11.576;2023-02-28T05:49:11;10.73;;;5.90;;
40046;SDS011;31510;48.122;11.576;2023-02-28T05:51:37;12.10;;;5.95;;
40046;SDS011;31510;48.122;11.576;2023-02-28T05:54:04;15.88;;;8.02;;
40046;SDS011;31510;48.122;11.576;2023-02-28T05:56:31;15.07;;;7.28;;
40046;SDS011;31510;48.122;11.576;2023-02-28T05:58:56;10.43;;;6.05;;
40046;SDS011;31510;48.122;11.576;2023-02-28T06:04:01;13.82;;;7.97;;
40046;SDS011;31510;48.122;11.576;2023-02-28T06:06:27;14.55;;;7.32;;
40046;SDS011;31510;48.122;11.576;2023-02-28T06:08:54;13.32;;;6.80;;
40046;SDS011;31510;48.122;11.576;2023-02-28T06:11:20;15.60;;;8.80;;
40046;SDS011;31510;48.122;11.576;2023-02-28T06:13:45;13.30;;;7.63;;
40046;SDS011;31510;48.122;11.576;2023-02-28T06:16:11;17.48;;;8.40;;
40046;SDS011;31510;48.122;11.576;2023-02-28T06:18:36;17.10;;;8.98;;
40046;SDS011;31510;48.122;11.576;2023-02-28T06:21:02;18.65;;;8.77;;
40046;SDS011;31510;48.122;11.576;2023-02-28T06:23:27;16.13;;;8.05;;
40046;SDS011;31510;48.122;11.576;2023-02-28T06:25:53;14.65;;;7.75;;
40046;SDS011;31510;48.122;11.576;2023-02-28T06:28:18;14.55;;;8.57;;
40046;SDS011;31510;48.122;11.576;2023-02-28T06:30:44;13.48;;;8.10;;
40046;SDS011;31510;48.122;11.576;2023-02-28T06:33:09;15.55;;;8.15;;
40046;SDS011;31510;48.122;11.576;2023-02-28T06:35:35;15.57;;;8.95;;
40046;SDS011;31510;48.122;11.576;2023-02-28T06:38:00;18.63;;;8.93;;
40046;SDS011;31510;48.122;11.576;2023-02-28T06:40:25;19.02;;;8.48;;
40046;SDS011;31510;48.122;11.576;2023-02-28T06:42:51;20.42;;;9.05;;
40046;SDS011;31510;48.122;11.576;2023-02-28T06:45:17;15.25;;;8.65;;
40046;SDS011;31510;48.122;11.576;2023-02-28T06:47:42;18.20;;;8.55;;
40046;SDS011;31510;48.122;11.576;2023-02-28T06:50:08;15.15;;;8.63;;
40046;SDS011;31510;48.122;11.576;2023-02-28T06:52:35;17.02;;;9.57;;
40046;SDS011;31510;48.122;11.576;2023-02-28T06:55:07;17.85;;;10.02;;
40046;SDS011;31510;48.122;11.576;2023-02-28T06:57:34;16.50;;;8.93;;
40046;SDS011;31510;48.122;11.576;2023-02-28T07:00:00;19.05;;;9.73;;
40046;SDS011;31510;48.122;11.576;2023-02-28T07:02:28;15.25;;;9.15;;
40046;SDS011;31510;48.122;11.576;2023-02-28T07:04:53;18.58;;;9.40;;
40046;SDS011;31510;48.122;11.576;2023-02-28T07:07:19;17.48;;;9.70;;
40046;SDS011;31510;48.122;11.576;2023-02-28T07:09:44;20.33;;;8.18;;
40046;SDS011;31510;48.122;11.576;2023-02-28T07:12:10;18.92;;;9.63;;
40046;SDS011;31510;48.122;11.576;2023-02-28T07:14:36;18.88;;;9.55;;
40046;SDS011;31510;48.122;11.576;2023-02-28T07:17:02;17.27;;;8.38;;
40046;SDS011;31510;48.122;11.576;2023-02-28T07:19:27;16.13;;;8.60;;
40046;SDS011;31510;48.122;11.576;2023-02-28T07:21:53;17.42;;;9.43;;
40046;SDS011;31510;48.122;11.576;2023-02-28T07:24:18;18.50;;;10.52;;
40046;SDS011;31510;48.122;11.576;2023-02-28T07:26:43;18.42;;;8.77;;
40046;SDS011;31510;48.122;11.576;2023-02-28T07:29:09;17.38;;;9.48;;
40046;SDS011;31510;48.122;11.576;2023-02-28T07:31:34;18.52;;;9.02;;
40046;SDS011;31510;48.122;11.576;2023-02-28T07:33:59;22.90;;;10.55;;
40046;SDS011;31510;48.122;11.576;2023-02-28T07:36:25;15.73;;;9.50;;
40046;SDS011;31510;48.122;11.576;2023-02-28T07:38:51;17.25;;;9.07;;
40046;SDS011;31510;48.122;11.576;2023-02-28T07:41:17;24.35;;;10.27;;
40046;SDS011;31510;48.122;11.576;2023-02-28T07:43:43;16.45;;;8.38;;
40046;SDS011;31510;48.122;11.576;2023-02-28T07:46:10;17.13;;;9.32;;
40046;SDS011;31510;48.122;11.576;2023-02-28T07:48:39;19.52;;;9.20;;
40046;SDS011;31510;48.122;11.576;2023-02-28T07:51:05;14.55;;;9.23;;
40046;SDS011;31510;48.122;11.576;2023-02-28T07:53:31;17.83;;;9.27;;
40046;SDS011;31510;48.122;11.576;2023-02-28T07:55:56;17.25;;;9.52;;
40046;SDS011;31510;48.122;11.576;2023-02-28T07:58:23;16.17;;;8.98;;
40046;SDS011;31510;48.122;11.576;2023-02-28T08:00:50;17.00;;;9.20;;
40046;SDS011;31510;48.122;11.576;2023-02-28T08:03:15;16.00;;;9.95;;
40046;SDS011;31510;48.122;11.576;2023-02-28T08:05:42;19.17;;;9.65;;
40046;SDS011;31510;48.122;11.576;2023-02-28T08:08:07;17.80;;;10.02;;
40046;SDS011;31510;48.122;11.576;2023-02-28T08:10:33;15.40;;;9.23;;
40046;SDS011;31510;48.122;11.576;2023-02-28T08:13:00;19.98;;;10.15;;
40046;SDS011;31510;48.122;11.576;2023-02-28T08:15:25;18.35;;;10.02;;
40046;SDS011;31510;48.122;11.576;2023-02-28T08:17:51;14.75;;;8.85;;
40046;SDS011;31510;48.122;11.576;2023-02-28T08:20:16;16.13;;;9.48;;
40046;SDS011;31510;48.122;11.576;2023-02-28T08:22:41;18.02;;;10.43;;
40046;SDS011;31510;48.122;11.576;2023-02-28T08:25:07;17.33;;;9.70;;
40046;SDS011;31510;48.122;11.576;2023-02-28T08:27:33;19.08;;;10.57;;
40046;SDS011;31510;48.122;11.576;2023-02-28T08:29:58;16.42;;;8.90;;
40046;SDS011;31510;48.122;11.576;2023-02-28T08:32:23;17.15;;;10.13;;
40046;SDS011;31510;48.122;11.576;2023-02-28T08:34:49;26.58;;;10.13;;
40046;SDS011;31510;48.122;11.576;2023-02-28T08:37:14;15.60;;;8.43;;
40046;SDS011;31510;48.122;11.576;2023-02-28T08:39:39;19.52;;;9.25;;
40046;SDS011;31510;48.122;11.576;2023-02-28T08:42:05;20.08;;;9.68;;
40046;SDS011;31510;48.122;11.576;2023-02-28T08:44:30;19.02;;;10.32;;
40046;SDS011;31510;48.122;11.576;2023-02-28T08:46:55;16.77;;;9.70;;
40046;SDS011;31510;48.122;11.576;2023-02-28T08:49:21;19.83;;;9.85;;
40046;SDS011;31510;48.122;11.576;2023-02-28T08:51:46;16.20;;;9.73;;
40046;SDS011;31510;48.122;11.576;2023-02-28T08:54:11;16.88;;;9.27;;
40046;SDS011;31510;48.122;11.576;2023-02-28T08:56:37;14.43;;;8.48;;
40046;SDS011;31510;48.122;11.576;2023-02-28T08:59:03;20.92;;;10.30;;
40046;SDS011;31510;48.122;11.576;2023-02-28T09:01:28;16.67;;;8.88;;
40046;SDS011;31510;48.122;11.576;2023-02-28T09:03:56;18.08;;;8.45;;
40046;SDS011;31510;48.122;11.576;2023-02-28T09:06:22;18.55;;;9.95;;
40046;SDS011;31510;48.122;11.576;2023-02-28T09:08:49;17.58;;;9.98;;
40046;SDS011;31510;48.122;11.576;2023-02-28T09:11:15;18.00;;;9.68;;
40046;SDS011;31510;48.122;11.576;2023-02-28T09:13:40;17.30;;;9.27;;
40046;SDS011;31510;48.122;11.576;2023-02-28T09:16:07;21.42;;;9.10;;
40046;SDS011;31510;48.122;11.576;2023-02-28T09:18:35;18.17;;;9.35;;
40046;SDS011;31510;48.122;11.576;2023-02-28T09:21:03;20.48;;;10.25;;
40046;SDS011;31510;48.122;11.576;2023-02-28T09:25:58;23.50;;;10.25;;
40046;SDS011;31510;48.122;11.576;2023-02-28T09:28:23;18.73;;;9.68;;
40046;SDS011;31510;48.122;11.576;2023-02-28T09:30:49;20.65;;;10.40;;
40046;SDS011;31510;48.122;11.576;2023-02-28T09:33:16;19.98;;;10.10;;
40046;SDS011;31510;48.122;11.576;2023-02-28T09:35:43;21.77;;;10.60;;
40046;SDS011;31510;48.122;11.576;2023-02-28T09:38:09;18.65;;;9.55;;
40046;SDS011;31510;48.122;11.576;2023-02-28T09:40:36;17.73;;;10.02;;
40046;SDS011;31510;48.122;11.576;2023-02-28T09:43:04;21.67;;;11.13;;
40046;SDS011;31510;48.122;11.576;2023-02-28T09:45:35;19.70;;;9.50;;
40046;SDS011;31510;48.122;11.576;2023-02-28T09:48:04;16.00;;;10.02;;
40046;SDS011;31510;48.122;11.576;2023-02-28T09:50:40;18.75;;;10.13;;
40046;SDS011;31510;48.122;11.576;2023-02-28T09:53:19;20.40;;;9.93;;
40046;SDS011;31510;48.122;11.576;2023-02-28T09:55:45;21.42;;;10.05;;
40046;SDS011;31510;48.122;11.576;2023-02-28T09:58:19;18.65;;;10.93;;
40046;SDS011;31510;48.122;11.576;2023-02-28T10:01:03;20.75;;;9.98;;
40046;SDS011;31510;48.122;11.576;2023-02-28T10:03:40;20.25;;;10.25;;
40046;SDS011;31510;48.122;11.576;2023-02-28T10:06:13;20.65;;;9.70;;
40046;SDS011;31510;48.122;11.576;2023-02-28T10:08:45;17.98;;;10.07;;
40046;SDS011;31510;48.122;11.576;2023-02-28T10:11:20;18.08;;;10.35;;
40046;SDS011;31510;48.122;11.576;2023-02-28T10:13:50;17.70;;;10.55;;
40046;SDS011;31510;48.122;11.576;2023-02-28T10:16:25;19.00;;;10.05;;
40046;SDS011;31510;48.122;11.576;2023-02-28T10:18:57;24.15;;;11.07;;
40046;SDS011;31510;48.122;11.576;2023-02-28T10:21:29;17.75;;;9.85;;
40046;SDS011;31510;48.122;11.576;2023-02-28T10:27:06;17.67;;;9.35;;
40046;SDS011;31510;48.122;11.576;2023-02-28T10:29:56;19.07;;;11.00;;
40046;SDS011;31510;48.122;11.576;2023-02-28T10:32:25;17.23;;;10.27;;
40046;SDS011;31510;48.122;11.576;2023-02-28T10:35:06;18.50;;;9.65;;
40046;SDS011;31510;48.122;11.576;2023-02-28T10:37:39;18.98;;;10.00;;
40046;SDS011;31510;48.122;11.576;2023-02-28T10:40:06;23.95;;;10.95;;
40046;SDS011;31510;48.122;11.576;2023-02-28T10:42:57;16.63;;;9.55;;
40046;SDS011;31510;48.122;11.576;2023-02-28T10:45:23;17.05;;;9.98;;
40046;SDS011;31510;48.122;11.576;2023-02-28T11:01:10;20.95;;;10.48;;
40046;SDS011;31510;48.122;11.576;2023-02-28T11:03:38;16.98;;;9.95;;
40046;SDS011;31510;48.122;11.576;2023-02-28T11:06:05;19.08;;;9.48;;
40046;SDS011;31510;48.122;11.576;2023-02-28T11:08:33;16.60;;;9.90;;
40046;SDS011;31510;48.122;11.576;2023-02-28T11:11:01;18.73;;;9.82;;
40046;SDS011;31510;48.122;11.576;2023-02-28T11:13:34;18.02;;;10.20;;
40046;SDS011;31510;48.122;11.576;2023-02-28T11:16:03;18.23;;;9.23;;
40046;SDS011;31510;48.122;11.576;2023-02-28T11:21:22;19.23;;;11.98;;
40046;SDS011;31510;48.122;11.576;2023-02-28T11:23:54;18.33;;;10.32;;
40046;SDS011;31510;48.122;11.576;2023-02-28T11:29:25;17.95;;;10.80;;
40046;SDS011;31510;48.122;11.576;2023-02-28T11:32:00;21.58;;;11.15;;
40046;SDS011;31510;48.122;11.576;2023-02-28T11:34:29;21.08;;;11.88;;
40046;SDS011;31510;48.122;11.576;2023-02-28T11:36:55;18.17;;;9.15;;
40046;SDS011;31510;48.122;11.576;2023-02-28T11:39:22;15.38;;;9.07;;
40046;SDS011;31510;48.122;11.576;2023-02-28T11:44:37;18.50;;;9.23;;
40046;SDS011;31510;48.122;11.576;2023-02-28T11:52:56;20.00;;;10.80;;
40046;SDS011;31510;48.122;11.576;2023-02-28T12:08:44;20.98;;;10.18;;
40046;SDS011;31510;48.122;11.576;2023-02-28T12:11:19;16.90;;;8.85;;
40046;SDS011;31510;48.122;11.576;2023-02-28T12:27:26;17.88;;;9.63;;
40046;SDS011;31510;48.122;11.576;2023-02-28T12:29:57;15.73;;;8.70;;
40046;SDS011;31510;48.122;11.576;2023-02-28T12:32:27;15.75;;;9.57;;
40046;SDS011;31510;48.122;11.576;2023-02-28T12:40:16;18.38;;;9.57;;
40046;SDS011;31510;48.122;11.576;2023-02-28T12:42:46;18.42;;;9.70;;
40046;SDS011;31510;48.122;11.576;2023-02-28T12:48:24;16.48;;;9.32;;
40046;SDS011;31510;48.122;11.576;2023-02-28T12:51:07;18.25;;;9.48;;
40046;SDS011;31510;48.122;11.576;2023-02-28T12:58:40;18.60;;;9.15;;
40046;SDS011;31510;48.122;11.576;2023-02-28T13:09:20;17.02;;;8.95;;
40046;SDS011;31510;48.122;11.576;2023-02-28T13:11:46;11.98;;;6.93;;
40046;SDS011;31510;48.122;11.576;2023-02-28T13:14:16;14.07;;;8.52;;
40046;SDS011;31510;48.122;11.576;2023-02-28T13:16:55;16.30;;;8.32;;
40046;SDS011;31510;48.122;11.576;2023-02-28T13:19:22;14.70;;;8.43;;
40046;SDS011;31510;48.122;11.576;2023-02-28T13:21:50;20.63;;;9.52;;
40046;SDS011;31510;48.122;11.576;2023-02-28T13:29:38;15.05;;;8.20;;
40046;SDS011;31510;48.122;11.576;2023-02-28T13:34:36;19.33;;;10.15;;
40046;SDS011;31510;48.122;11.576;2023-02-28T13:39:45;10.75;;;7.63;;
40046;SDS011;31510;48.122;11.576;2023-02-28T13:42:23;13.00;;;8.13;;
40046;SDS011;31510;48.122;11.576;2023-02-28T13:47:27;14.00;;;7.83;;
40046;SDS011;31510;48.122;11.576;2023-02-28T13:49:55;14.13;;;8.15;;
40046;SDS011;31510;48.122;11.576;2023-02-28T13:53:02;12.70;;;7.90;;
40046;SDS011;31510;48.122;11.576;2023-02-28T13:55:46;16.10;;;9.27;;
40046;SDS011;31510;48.122;11.576;2023-02-28T14:07:18;14.45;;;8.23;;
40046;SDS011;31510;48.122;11.576;2023-02-28T14:15:30;18.30;;;8.55;;
40046;SDS011;31510;48.122;11.576;2023-02-28T14:18:03;19.90;;;10.43;;
40046;SDS011;31510;48.122;11.576;2023-02-28T14:20:39;18.30;;;9.38;;
40046;SDS011;31510;48.122;11.576;2023-02-28T14:28:46;13.55;;;8.43;;
40046;SDS011;31510;48.122;11.576;2023-02-28T14:31:23;12.55;;;7.22;;
40046;SDS011;31510;48.122;11.576;2023-02-28T14:36:45;13.88;;;7.50;;
40046;SDS011;31510;48.122;11.576;2023-02-28T14:39:16;17.13;;;7.15;;
40046;SDS011;31510;48.122;11.576;2023-02-28T14:41:45;11.20;;;7.78;;
40046;SDS011;31510;48.122;11.576;2023-02-28T14:44:16;15.77;;;8.63;;
40046;SDS011;31510;48.122;11.576;2023-02-28T14:46:54;14.80;;;8.60;;
40046;SDS011;31510;48.122;11.576;2023-02-28T14:49:21;25.90;;;9.13;;
40046;SDS011;31510;48.122;11.576;2023-02-28T14:52:01;14.32;;;8.30;;
40046;SDS011;31510;48.122;11.576;2023-02-28T14:54:54;12.45;;;7.78;;
40046;SDS011;31510;48.122;11.576;2023-02-28T14:57:26;13.60;;;7.90;;
40046;SDS011;31510;48.122;11.576;2023-02-28T15:00:21;15.95;;;8.18;;
40046;SDS011;31510;48.122;11.576;2023-02-28T15:02:49;18.73;;;8.88;;
40046;SDS011;31510;48.122;11.576;2023-02-28T15:07:43;13.48;;;8.10;;
40046;SDS011;31510;48.122;11.576;2023-02-28T15:10:25;19.10;;;8.13;;
40046;SDS011;31510;48.122;11.576;2023-02-28T15:12:56;18.25;;;8.73;;
40046;SDS011;31510;48.122;11.576;2023-02-28T15:21:13;14.52;;;7.60;;
40046;SDS011;31510;48.122;11.576;2023-02-28T15:23:42;13.48;;;8.02;;
40046;SDS011;31510;48.122;11.576;2023-02-28T15:26:12;12.68;;;8.45;;
40046;SDS011;31510;48.122;11.576;2023-02-28T15:28:41;13.05;;;8.40;;
40046;SDS011;31510;48.122;11.576;2023-02-28T15:31:18;17.00;;;7.20;;
40046;SDS011;31510;48.122;11.576;2023-02-28T15:33:54;16.08;;;7.85;;
40046;SDS011;31510;48.122;11.576;2023-02-28T15:36:21;10.55;;;6.53;;
40046;SDS011;31510;48.122;11.576;2023-02-28T15:38:52;11.63;;;7.57;;
40046;SDS011;31510;48.122;11.576;2023-02-28T15:41:28;15.18;;;8.50;;
40046;SDS011;31510;48.122;11.576;2023-02-28T15:44:13;16.48;;;10.32;;
40046;SDS011;31510;48.122;11.576;2023-02-28T15:47:00;15.48;;;8.90;;
40046;SDS011;31510;48.122;11.576;2023-02-28T15:49:27;13.13;;;7.22;;
40046;SDS011;31510;48.122;11.576;2023-02-28T15:51:55;13.05;;;7.30;;
40046;SDS011;31510;48.122;11.576;2023-02-28T15:54:23;15.50;;;8.07;;
40046;SDS011;31510;48.122;11.576;2023-02-28T15:56:53;13.57;;;7.85;;
40046;SDS011;31510;48.122;11.576;2023-02-28T15:59:22;11.93;;;7.45;;
40046;SDS011;31510;48.122;11.576;2023-02-28T16:02:03;15.82;;;8.45;;
40046;SDS011;31510;48.122;11.576;2023-02-28T16:04:54;16.08;;;8.27;;
40046;SDS011;31510;48.122;11.576;2023-02-28T16:07:21;17.65;;;8.23;;
40046;SDS011;31510;48.122;11.576;2023-02-28T16:09:46;13.20;;;7.28;;
40046;SDS011;31510;48.122;11.576;2023-02-28T16:12:13;17.83;;;8.73;;
40046;SDS011;31510;48.122;11.576;2023-02-28T16:14:38;16.10;;;8.02;;
40046;SDS011;31510;48.122;11.576;2023-02-28T16:17:07;16.20;;;9.40;;
40046;SDS011;31510;48.122;11.576;2023-02-28T16:19:44;15.40;;;7.67;;
40046;SDS011;31510;48.122;11.576;2023-02-28T16:22:09;15.63;;;7.90;;
40046;SDS011;31510;48.122;11.576;2023-02-28T16:24:34;14.65;;;7.90;;
40046;SDS011;31510;48.122;11.576;2023-02-28T16:27:00;13.13;;;7.32;;
40046;SDS011;31510;48.122;11.576;2023-02-28T16:29:32;13.63;;;7.93;;
40046;SDS011;31510;48.122;11.576;2023-02-28T16:32:01;14.60;;;8.35;;
40046;SDS011;31510;48.122;11.576;2023-02-28T16:34:28;13.65;;;8.05;;
40046;SDS011;31510;48.122;11.576;2023-02-28T16:36:54;17.52;;;8.40;;
40046;SDS011;31510;48.122;11.576;2023-02-28T16:39:19;12.88;;;7.43;;
40046;SDS011;31510;48.122;11.576;2023-02-28T16:41:45;16.77;;;7.05;;
40046;SDS011;31510;48.122;11.576;2023-02-28T16:44:13;14.80;;;8.70;;
40046;SDS011;31510;48.122;11.576;2023-02-28T16:46:48;15.80;;;8.70;;
40046;SDS011;31510;48.122;11.576;2023-02-28T16:49:17;15.15;;;9.00;;
40046;SDS011;31510;48.122;11.576;2023-02-28T16:51:42;14.65;;;7.68;;
40046;SDS011;31510;48.122;11.576;2023-02-28T16:54:07;12.93;;;7.90;;
40046;SDS011;31510;48.122;11.576;2023-02-28T16:56:33;15.00;;;7.75;;
40046;SDS011;31510;48.122;11.576;2023-02-28T16:58:59;17.17;;;9.02;;
40046;SDS011;31510;48.122;11.576;2023-02-28T17:01:26;16.15;;;8.27;;
40046;SDS011;31510;48.122;11.576;2023-02-28T17:03:52;10.82;;;7.40;;
40046;SDS011;31510;48.122;11.576;2023-02-28T17:06:25;15.80;;;8.43;;
40046;SDS011;31510;48.122;11.576;2023-02-28T17:08:55;16.63;;;8.05;;
40046;SDS011;31510;48.122;11.576;2023-02-28T17:11:21;14.02;;;8.38;;
40046;SDS011;31510;48.122;11.576;2023-02-28T17:13:47;14.75;;;9.18;;
40046;SDS011;31510;48.122;11.576;2023-02-28T17:16:15;14.20;;;8.35;;
40046;SDS011;31510;48.122;11.576;2023-02-28T17:18:47;17.83;;;8.77;;
40046;SDS011;31510;48.122;11.576;2023-02-28T17:21:13;16.30;;;8.50;;
40046;SDS011;31510;48.122;11.576;2023-02-28T17:23:39;15.50;;;9.57;;
40046;SDS011;31510;48.122;11.576;2023-02-28T17:26:05;17.30;;;8.80;;
40046;SDS011;31510;48.122;11.576;2023-02-28T17:28:31;17.00;;;8.55;;
40046;SDS011;31510;48.122;11.576;2023-02-28T17:30:56;14.95;;;8.52;;
40046;SDS011;31510;48.122;11.576;2023-02-28T17:33:22;17.80;;;9.98;;